sensor_id;sensor_type;location;lat;lon;timestamp;P1;durP1;ratioP1;P2;durP2;ratioP2
20535;SDS011;10426;49.420;8.390;2023-05-07T00:01:12;3.10;;;2.80;;
20535;SDS011;10426;49.420;8.390;2023-05-07T00:03:39;2.47;;;2.33;;
20535;SDS011;10426;49.420;8.390;2023-05-07T00:06:06;3.17;;;2.57;;
20535;SDS011;10426;49.420;8.390;2023-05-07T00:08:32;3.08;;;2.60;;
20535;SDS011;10426;49.420;8.390;2023-05-07T00:10:59;2.83;;;2.63;;
20535;SDS011;10426;49.420;8.390;2023-05-07T00:13:25;2.95;;;2.75;;
20535;SDS011;10426;49.420;8.390;2023-05-07T00:15:53;3.15;;;2.70;;
20535;SDS011;10426;49.420;8.390;2023-05-07T00:18:20;2.90;;;2.60;;
20535;SDS011;10426;49.420;8.390;2023-05-07T00:20:47;3.92;;;3.05;;
20535;SDS011;10426;49.420;8.390;2023-05-07T00:23:14;3.00;;;2.80;;
20535;SDS011;10426;49.420;8.390;2023-05-07T00:25:41;3.25;;;2.88;;
20535;SDS011;10426;49.420;8.390;2023-05-07T00:28:07;3.40;;;3.10;;
20535;SDS011;10426;49.420;8.390;2023-05-07T00:30:34;3.05;;;2.85;;
20535;SDS011;10426;49.420;8.390;2023-05-07T00:33:02;3.45;;;3.08;;
20535;SDS011;10426;49.420;8.390;2023-05-07T00:35:28;3.30;;;2.97;;
20535;SDS011;10426;49.420;8.390;2023-05-07T00:37:55;4.13;;;3.00;;
20535;SDS011;10426;49.420;8.390;2023-05-07T00:40:22;3.10;;;2.90;;
20535;SDS011;10426;49.420;8.390;2023-05-07T00:42:49;3.17;;;2.88;;
20535;SDS011;10426;49.420;8.390;2023-05-07T00:45:15;3.47;;;3.17;;
20535;SDS011;10426;49.420;8.390;2023-05-07T00:47:42;3.63;;;3.10;;
20535;SDS011;10426;49.420;8.390;2023-05-07T00:50:10;3.13;;;2.92;;
20535;SDS011;10426;49.420;8.390;2023-05-07T00:52:37;3.70;;;3.38;;
20535;SDS011;10426;49.420;8.390;2023-05-07T00:55:05;3.47;;;3.17;;
20535;SDS011;10426;49.420;8.390;2023-05-07T00:57:32;3.40;;;3.10;;
20535;SDS011;10426;49.420;8.390;2023-05-07T00:59:59;3.90;;;3.45;;
20535;SDS011;10426;49.420;8.390;2023-05-07T01:02:26;3.30;;;3.10;;
20535;SDS011;10426;49.420;8.390;2023-05-07T01:04:52;4.38;;;3.20;;
20535;SDS011;10426;49.420;8.390;2023-05-07T01:07:20;3.28;;;3.08;;
20535;SDS011;10426;49.420;8.390;2023-05-07T01:09:47;3.55;;;3.30;;
20535;SDS011;10426;49.420;8.390;2023-05-07T01:12:13;3.58;;;3.30;;
20535;SDS011;10426;49.420;8.390;2023-05-07T01:14:40;4.70;;;3.40;;
20535;SDS011;10426;49.420;8.390;2023-05-07T01:17:07;4.20;;;3.40;;
20535;SDS011;10426;49.420;8.390;2023-05-07T01:19:34;3.50;;;3.17;;
20535;SDS011;10426;49.420;8.390;2023-05-07T01:22:02;3.92;;;2.85;;
20535;SDS011;10426;49.420;8.390;2023-05-07T01:24:31;3.80;;;3.50;;
20535;SDS011;10426;49.420;8.390;2023-05-07T01:26:58;3.53;;;3.23;;
20535;SDS011;10426;49.420;8.390;2023-05-07T01:29:24;3.83;;;3.20;;
20535;SDS011;10426;49.420;8.390;2023-05-07T01:31:51;2.92;;;2.72;;
20535;SDS011;10426;49.420;8.390;2023-05-07T01:34:18;4.15;;;3.35;;
20535;SDS011;10426;49.420;8.390;2023-05-07T01:36:45;4.55;;;3.30;;
20535;SDS011;10426;49.420;8.390;2023-05-07T01:39:13;3.78;;;3.28;;
20535;SDS011;10426;49.420;8.390;2023-05-07T01:41:41;3.42;;;3.15;;
20535;SDS011;10426;49.420;8.390;2023-05-07T01:44:09;8.55;;;3.58;;
20535;SDS011;10426;49.420;8.390;2023-05-07T01:46:36;3.22;;;2.92;;
20535;SDS011;10426;49.420;8.390;2023-05-07T01:49:03;3.08;;;2.88;;
20535;SDS011;10426;49.420;8.390;2023-05-07T01:51:30;3.73;;;2.90;;
20535;SDS011;10426;49.420;8.390;2023-05-07T01:53:57;3.30;;;3.00;;
20535;SDS011;10426;49.420;8.390;2023-05-07T01:56:25;3.67;;;3.00;;
20535;SDS011;10426;49.420;8.390;2023-05-07T01:58:53;3.42;;;3.15;;
20535;SDS011;10426;49.420;8.390;2023-05-07T02:01:19;2.97;;;2.80;;
20535;SDS011;10426;49.420;8.390;2023-05-07T02:03:46;3.03;;;2.83;;
20535;SDS011;10426;49.420;8.390;2023-05-07T02:06:13;3.20;;;2.83;;
20535;SDS011;10426;49.420;8.390;2023-05-07T02:08:39;4.70;;;3.70;;
20535;SDS011;10426;49.420;8.390;2023-05-07T02:11:06;3.33;;;3.03;;
20535;SDS011;10426;49.420;8.390;2023-05-07T02:13:33;4.15;;;2.78;;
20535;SDS011;10426;49.420;8.390;2023-05-07T02:16:01;3.30;;;3.00;;
20535;SDS011;10426;49.420;8.390;2023-05-07T02:18:28;2.90;;;2.70;;
20535;SDS011;10426;49.420;8.390;2023-05-07T02:20:54;3.20;;;3.00;;
20535;SDS011;10426;49.420;8.390;2023-05-07T02:23:21;3.22;;;3.03;;
20535;SDS011;10426;49.420;8.390;2023-05-07T02:25:48;3.08;;;2.88;;
20535;SDS011;10426;49.420;8.390;2023-05-07T02:28:15;2.83;;;2.70;;
20535;SDS011;10426;49.420;8.390;2023-05-07T02:30:41;3.22;;;2.97;;
20535;SDS011;10426;49.420;8.390;2023-05-07T02:33:09;5.13;;;2.88;;
20535;SDS011;10426;49.420;8.390;2023-05-07T02:35:37;2.90;;;2.70;;
20535;SDS011;10426;49.420;8.390;2023-05-07T02:38:04;3.00;;;2.80;;
20535;SDS011;10426;49.420;8.390;2023-05-07T02:40:31;4.70;;;2.90;;
20535;SDS011;10426;49.420;8.390;2023-05-07T02:42:59;2.80;;;2.70;;
20535;SDS011;10426;49.420;8.390;2023-05-07T02:45:25;3.70;;;2.90;;
20535;SDS011;10426;49.420;8.390;2023-05-07T02:47:52;3.27;;;2.90;;
20535;SDS011;10426;49.420;8.390;2023-05-07T02:50:20;3.08;;;2.88;;
20535;SDS011;10426;49.420;8.390;2023-05-07T02:52:47;3.10;;;2.90;;
20535;SDS011;10426;49.420;8.390;2023-05-07T02:55:13;3.00;;;2.80;;
20535;SDS011;10426;49.420;8.390;2023-05-07T02:57:40;2.75;;;2.55;;
20535;SDS011;10426;49.420;8.390;2023-05-07T03:00:10;3.22;;;2.78;;
20535;SDS011;10426;49.420;8.390;2023-05-07T03:02:37;2.90;;;2.70;;
20535;SDS011;10426;49.420;8.390;2023-05-07T03:05:04;2.88;;;2.65;;
20535;SDS011;10426;49.420;8.390;2023-05-07T03:07:32;3.13;;;2.83;;
20535;SDS011;10426;49.420;8.390;2023-05-07T03:09:59;2.95;;;2.75;;
20535;SDS011;10426;49.420;8.390;2023-05-07T03:12:26;3.00;;;2.70;;
20535;SDS011;10426;49.420;8.390;2023-05-07T03:14:52;2.72;;;2.50;;
20535;SDS011;10426;49.420;8.390;2023-05-07T03:17:19;2.70;;;2.50;;
20535;SDS011;10426;49.420;8.390;2023-05-07T03:19:47;2.70;;;2.50;;
20535;SDS011;10426;49.420;8.390;2023-05-07T03:22:16;3.00;;;2.70;;
20535;SDS011;10426;49.420;8.390;2023-05-07T03:24:44;4.35;;;2.50;;
20535;SDS011;10426;49.420;8.390;2023-05-07T03:27:11;3.30;;;2.80;;
20535;SDS011;10426;49.420;8.390;2023-05-07T03:29:37;3.08;;;2.88;;
20535;SDS011;10426;49.420;8.390;2023-05-07T03:32:04;3.25;;;2.95;;
20535;SDS011;10426;49.420;8.390;2023-05-07T03:34:32;3.10;;;2.90;;
20535;SDS011;10426;49.420;8.390;2023-05-07T03:36:59;3.15;;;2.95;;
20535;SDS011;10426;49.420;8.390;2023-05-07T03:39:26;3.00;;;2.80;;
20535;SDS011;10426;49.420;8.390;2023-05-07T03:41:54;2.95;;;2.72;;
20535;SDS011;10426;49.420;8.390;2023-05-07T03:44:21;3.10;;;2.80;;
20535;SDS011;10426;49.420;8.390;2023-05-07T03:46:47;2.97;;;2.78;;
20535;SDS011;10426;49.420;8.390;2023-05-07T03:49:14;2.97;;;2.70;;
20535;SDS011;10426;49.420;8.390;2023-05-07T03:51:41;3.38;;;2.90;;
20535;SDS011;10426;49.420;8.390;2023-05-07T03:54:07;3.38;;;3.10;;
20535;SDS011;10426;49.420;8.390;2023-05-07T03:56:34;4.30;;;2.80;;
20535;SDS011;10426;49.420;8.390;2023-05-07T03:59:02;3.33;;;3.03;;
20535;SDS011;10426;49.420;8.390;2023-05-07T04:01:28;3.25;;;2.75;;
20535;SDS011;10426;49.420;8.390;2023-05-07T04:03:55;2.83;;;2.63;;
20535;SDS011;10426;49.420;8.390;2023-05-07T04:06:22;3.20;;;2.90;;
20535;SDS011;10426;49.420;8.390;2023-05-07T04:08:49;4.00;;;2.60;;
20535;SDS011;10426;49.420;8.390;2023-05-07T04:11:16;3.10;;;2.90;;
20535;SDS011;10426;49.420;8.390;2023-05-07T04:13:43;3.33;;;3.00;;
20535;SDS011;10426;49.420;8.390;2023-05-07T04:16:11;3.20;;;2.90;;
20535;SDS011;10426;49.420;8.390;2023-05-07T04:18:37;3.45;;;3.15;;
20535;SDS011;10426;49.420;8.390;2023-05-07T04:21:04;3.83;;;2.90;;
20535;SDS011;10426;49.420;8.390;2023-05-07T04:23:31;2.97;;;2.78;;
20535;SDS011;10426;49.420;8.390;2023-05-07T04:25:57;3.20;;;2.90;;
20535;SDS011;10426;49.420;8.390;2023-05-07T04:28:24;4.35;;;3.00;;
20535;SDS011;10426;49.420;8.390;2023-05-07T04:30:51;3.60;;;2.90;;
20535;SDS011;10426;49.420;8.390;2023-05-07T04:33:19;2.92;;;2.72;;
20535;SDS011;10426;49.420;8.390;2023-05-07T04:35:45;3.50;;;2.93;;
20535;SDS011;10426;49.420;8.390;2023-05-07T04:38:12;4.20;;;3.00;;
20535;SDS011;10426;49.420;8.390;2023-05-07T04:40:39;3.08;;;2.88;;
20535;SDS011;10426;49.420;8.390;2023-05-07T04:43:06;3.13;;;2.92;;
20535;SDS011;10426;49.420;8.390;2023-05-07T04:45:34;3.40;;;3.10;;
20535;SDS011;10426;49.420;8.390;2023-05-07T04:48:01;3.05;;;2.85;;
20535;SDS011;10426;49.420;8.390;2023-05-07T04:50:29;3.17;;;2.88;;
20535;SDS011;10426;49.420;8.390;2023-05-07T04:52:56;4.80;;;3.22;;
20535;SDS011;10426;49.420;8.390;2023-05-07T04:55:23;4.50;;;3.10;;
20535;SDS011;10426;49.420;8.390;2023-05-07T04:57:49;3.17;;;2.87;;
20535;SDS011;10426;49.420;8.390;2023-05-07T05:00:16;3.92;;;2.90;;
20535;SDS011;10426;49.420;8.390;2023-05-07T05:02:44;5.27;;;3.00;;
20535;SDS011;10426;49.420;8.390;2023-05-07T05:05:11;4.30;;;2.90;;
20535;SDS011;10426;49.420;8.390;2023-05-07T05:07:39;3.67;;;2.83;;
20535;SDS011;10426;49.420;8.390;2023-05-07T05:10:06;2.90;;;2.70;;
20535;SDS011;10426;49.420;8.390;2023-05-07T05:12:32;4.40;;;2.90;;
20535;SDS011;10426;49.420;8.390;2023-05-07T05:14:59;3.30;;;3.00;;
20535;SDS011;10426;49.420;8.390;2023-05-07T05:17:26;3.30;;;3.00;;
20535;SDS011;10426;49.420;8.390;2023-05-07T05:19:54;3.37;;;3.17;;
20535;SDS011;10426;49.420;8.390;2023-05-07T05:22:20;3.60;;;3.30;;
20535;SDS011;10426;49.420;8.390;2023-05-07T05:24:48;4.70;;;3.10;;
20535;SDS011;10426;49.420;8.390;2023-05-07T05:27:15;3.20;;;2.90;;
20535;SDS011;10426;49.420;8.390;2023-05-07T05:29:42;3.33;;;3.03;;
20535;SDS011;10426;49.420;8.390;2023-05-07T05:32:08;4.03;;;3.33;;
20535;SDS011;10426;49.420;8.390;2023-05-07T05:34:35;4.43;;;3.35;;
20535;SDS011;10426;49.420;8.390;2023-05-07T05:37:01;3.50;;;3.25;;
20535;SDS011;10426;49.420;8.390;2023-05-07T05:39:28;4.53;;;3.00;;
20535;SDS011;10426;49.420;8.390;2023-05-07T05:41:56;4.40;;;2.83;;
20535;SDS011;10426;49.420;8.390;2023-05-07T05:44:23;3.58;;;3.35;;
20535;SDS011;10426;49.420;8.390;2023-05-07T05:46:50;3.03;;;2.83;;
20535;SDS011;10426;49.420;8.390;2023-05-07T05:49:17;3.53;;;3.22;;
20535;SDS011;10426;49.420;8.390;2023-05-07T05:51:44;3.30;;;3.00;;
20535;SDS011;10426;49.420;8.390;2023-05-07T05:54:10;4.13;;;3.22;;
20535;SDS011;10426;49.420;8.390;2023-05-07T05:56:37;3.50;;;3.17;;
20535;SDS011;10426;49.420;8.390;2023-05-07T05:59:07;3.28;;;2.97;;
20535;SDS011;10426;49.420;8.390;2023-05-07T06:01:34;3.45;;;2.90;;
20535;SDS011;10426;49.420;8.390;2023-05-07T06:04:00;3.00;;;2.80;;
20535;SDS011;10426;49.420;8.390;2023-05-07T06:06:27;3.90;;;2.90;;
20535;SDS011;10426;49.420;8.390;2023-05-07T06:08:53;2.88;;;2.67;;
20535;SDS011;10426;49.420;8.390;2023-05-07T06:11:20;4.88;;;3.00;;
20535;SDS011;10426;49.420;8.390;2023-05-07T06:13:47;3.60;;;2.80;;
20535;SDS011;10426;49.420;8.390;2023-05-07T06:16:15;3.63;;;2.97;;
20535;SDS011;10426;49.420;8.390;2023-05-07T06:18:41;3.50;;;3.20;;
20535;SDS011;10426;49.420;8.390;2023-05-07T06:21:10;3.97;;;3.40;;
20535;SDS011;10426;49.420;8.390;2023-05-07T06:23:37;3.40;;;2.85;;
20535;SDS011;10426;49.420;8.390;2023-05-07T06:26:03;4.70;;;3.00;;
20535;SDS011;10426;49.420;8.390;2023-05-07T06:28:30;3.72;;;2.90;;
20535;SDS011;10426;49.420;8.390;2023-05-07T06:31:15;3.53;;;2.97;;
20535;SDS011;10426;49.420;8.390;2023-05-07T06:33:42;3.05;;;2.85;;
20535;SDS011;10426;49.420;8.390;2023-05-07T06:36:09;3.70;;;3.33;;
20535;SDS011;10426;49.420;8.390;2023-05-07T06:38:36;3.10;;;2.90;;
20535;SDS011;10426;49.420;8.390;2023-05-07T06:41:02;5.28;;;3.25;;
20535;SDS011;10426;49.420;8.390;2023-05-07T06:43:29;3.15;;;2.95;;
20535;SDS011;10426;49.420;8.390;2023-05-07T06:45:56;3.33;;;2.85;;
20535;SDS011;10426;49.420;8.390;2023-05-07T06:48:24;2.90;;;2.70;;
20535;SDS011;10426;49.420;8.390;2023-05-07T06:50:50;3.25;;;2.97;;
20535;SDS011;10426;49.420;8.390;2023-05-07T06:53:17;3.20;;;3.00;;
20535;SDS011;10426;49.420;8.390;2023-05-07T06:55:45;3.28;;;3.00;;
20535;SDS011;10426;49.420;8.390;2023-05-07T06:58:11;4.00;;;3.07;;
20535;SDS011;10426;49.420;8.390;2023-05-07T07:00:38;3.30;;;3.00;;
20535;SDS011;10426;49.420;8.390;2023-05-07T07:03:06;2.90;;;2.70;;
20535;SDS011;10426;49.420;8.390;2023-05-07T07:05:34;4.13;;;2.90;;
20535;SDS011;10426;49.420;8.390;2023-05-07T07:08:03;4.38;;;3.00;;
20535;SDS011;10426;49.420;8.390;2023-05-07T07:10:29;3.72;;;3.20;;
20535;SDS011;10426;49.420;8.390;2023-05-07T07:12:56;5.50;;;3.03;;
20535;SDS011;10426;49.420;8.390;2023-05-07T07:15:22;3.67;;;3.38;;
20535;SDS011;10426;49.420;8.390;2023-05-07T07:17:50;3.50;;;3.20;;
20535;SDS011;10426;49.420;8.390;2023-05-07T07:20:17;3.20;;;2.92;;
20535;SDS011;10426;49.420;8.390;2023-05-07T07:22:46;3.53;;;3.17;;
20535;SDS011;10426;49.420;8.390;2023-05-07T07:25:13;3.38;;;3.10;;
20535;SDS011;10426;49.420;8.390;2023-05-07T07:27:39;3.40;;;3.10;;
20535;SDS011;10426;49.420;8.390;2023-05-07T07:30:06;4.60;;;3.28;;
20535;SDS011;10426;49.420;8.390;2023-05-07T07:32:33;3.38;;;3.08;;
20535;SDS011;10426;49.420;8.390;2023-05-07T07:35:00;3.30;;;3.00;;
20535;SDS011;10426;49.420;8.390;2023-05-07T07:37:27;3.08;;;2.88;;
20535;SDS011;10426;49.420;8.390;2023-05-07T07:39:56;3.45;;;3.15;;
20535;SDS011;10426;49.420;8.390;2023-05-07T07:42:24;3.42;;;2.97;;
20535;SDS011;10426;49.420;8.390;2023-05-07T07:44:51;3.10;;;2.80;;
20535;SDS011;10426;49.420;8.390;2023-05-07T07:47:18;3.28;;;3.00;;
20535;SDS011;10426;49.420;8.390;2023-05-07T07:49:45;3.38;;;3.05;;
20535;SDS011;10426;49.420;8.390;2023-05-07T07:52:12;3.38;;;3.08;;
20535;SDS011;10426;49.420;8.390;2023-05-07T07:54:38;2.70;;;2.50;;
20535;SDS011;10426;49.420;8.390;2023-05-07T07:57:06;3.20;;;2.80;;
20535;SDS011;10426;49.420;8.390;2023-05-07T07:59:33;3.55;;;2.50;;
20535;SDS011;10426;49.420;8.390;2023-05-07T08:01:59;2.80;;;2.60;;
20535;SDS011;10426;49.420;8.390;2023-05-07T08:04:26;3.05;;;2.78;;
20535;SDS011;10426;49.420;8.390;2023-05-07T08:06:53;2.65;;;2.50;;
20535;SDS011;10426;49.420;8.390;2023-05-07T08:09:20;2.83;;;2.63;;
20535;SDS011;10426;49.420;8.390;2023-05-07T08:11:47;5.07;;;2.88;;
20535;SDS011;10426;49.420;8.390;2023-05-07T08:14:16;2.65;;;2.45;;
20535;SDS011;10426;49.420;8.390;2023-05-07T08:16:43;3.17;;;2.92;;
20535;SDS011;10426;49.420;8.390;2023-05-07T08:19:10;2.50;;;2.40;;
20535;SDS011;10426;49.420;8.390;2023-05-07T08:21:38;2.85;;;2.55;;
20535;SDS011;10426;49.420;8.390;2023-05-07T08:24:06;2.75;;;2.38;;
20535;SDS011;10426;49.420;8.390;2023-05-07T08:26:34;9.60;;;2.60;;
20535;SDS011;10426;49.420;8.390;2023-05-07T08:29:05;2.65;;;2.47;;
20535;SDS011;10426;49.420;8.390;2023-05-07T08:31:34;2.97;;;2.67;;
20535;SDS011;10426;49.420;8.390;2023-05-07T08:34:02;2.90;;;2.60;;
20535;SDS011;10426;49.420;8.390;2023-05-07T08:36:29;2.80;;;2.60;;
20535;SDS011;10426;49.420;8.390;2023-05-07T08:38:56;2.90;;;2.70;;
20535;SDS011;10426;49.420;8.390;2023-05-07T08:41:25;3.33;;;2.70;;
20535;SDS011;10426;49.420;8.390;2023-05-07T08:43:51;2.80;;;2.60;;
20535;SDS011;10426;49.420;8.390;2023-05-07T08:46:20;2.85;;;2.70;;
20535;SDS011;10426;49.420;8.390;2023-05-07T08:48:49;3.55;;;2.80;;
20535;SDS011;10426;49.420;8.390;2023-05-07T08:51:17;2.88;;;2.60;;
20535;SDS011;10426;49.420;8.390;2023-05-07T08:53:44;3.28;;;2.80;;
20535;SDS011;10426;49.420;8.390;2023-05-07T08:56:11;2.87;;;2.60;;
20535;SDS011;10426;49.420;8.390;2023-05-07T08:58:38;3.55;;;2.70;;
20535;SDS011;10426;49.420;8.390;2023-05-07T09:01:07;2.85;;;2.63;;
20535;SDS011;10426;49.420;8.390;2023-05-07T09:03:33;2.87;;;2.70;;
20535;SDS011;10426;49.420;8.390;2023-05-07T09:06:02;3.00;;;2.80;;
20535;SDS011;10426;49.420;8.390;2023-05-07T09:08:28;2.80;;;2.60;;
20535;SDS011;10426;49.420;8.390;2023-05-07T09:10:55;3.30;;;3.10;;
20535;SDS011;10426;49.420;8.390;2023-05-07T09:13:22;3.60;;;3.30;;
20535;SDS011;10426;49.420;8.390;2023-05-07T09:15:49;3.42;;;3.20;;
20535;SDS011;10426;49.420;8.390;2023-05-07T09:18:15;3.47;;;3.13;;
20535;SDS011;10426;49.420;8.390;2023-05-07T09:20:42;3.20;;;3.00;;
20535;SDS011;10426;49.420;8.390;2023-05-07T09:23:10;4.97;;;3.35;;
20535;SDS011;10426;49.420;8.390;2023-05-07T09:25:38;3.15;;;2.95;;
20535;SDS011;10426;49.420;8.390;2023-05-07T09:28:05;3.33;;;3.00;;
20535;SDS011;10426;49.420;8.390;2023-05-07T09:30:33;3.22;;;3.03;;
20535;SDS011;10426;49.420;8.390;2023-05-07T09:33:00;3.50;;;3.20;;
20535;SDS011;10426;49.420;8.390;2023-05-07T09:35:27;4.43;;;2.65;;
20535;SDS011;10426;49.420;8.390;2023-05-07T09:37:55;3.70;;;3.10;;
20535;SDS011;10426;49.420;8.390;2023-05-07T09:40:23;3.55;;;3.00;;
20535;SDS011;10426;49.420;8.390;2023-05-07T09:42:51;8.23;;;3.40;;
20535;SDS011;10426;49.420;8.390;2023-05-07T09:45:21;3.20;;;2.90;;
20535;SDS011;10426;49.420;8.390;2023-05-07T09:47:48;3.53;;;2.95;;
20535;SDS011;10426;49.420;8.390;2023-05-07T09:50:15;3.23;;;2.93;;
20535;SDS011;10426;49.420;8.390;2023-05-07T09:52:42;3.00;;;2.80;;
20535;SDS011;10426;49.420;8.390;2023-05-07T09:55:10;3.30;;;3.03;;
20535;SDS011;10426;49.420;8.390;2023-05-07T09:57:38;3.38;;;3.08;;
20535;SDS011;10426;49.420;8.390;2023-05-07T10:00:06;3.03;;;2.83;;
20535;SDS011;10426;49.420;8.390;2023-05-07T10:02:35;3.00;;;2.80;;
20535;SDS011;10426;49.420;8.390;2023-05-07T10:05:12;3.45;;;3.15;;
20535;SDS011;10426;49.420;8.390;2023-05-07T10:07:40;3.00;;;2.80;;
20535;SDS011;10426;49.420;8.390;2023-05-07T10:10:07;3.03;;;2.83;;
20535;SDS011;10426;49.420;8.390;2023-05-07T10:12:41;3.00;;;2.70;;
20535;SDS011;10426;49.420;8.390;2023-05-07T10:15:09;4.22;;;2.92;;
20535;SDS011;10426;49.420;8.390;2023-05-07T10:17:38;3.00;;;2.90;;
20535;SDS011;10426;49.420;8.390;2023-05-07T10:20:07;3.15;;;2.85;;
20535;SDS011;10426;49.420;8.390;2023-05-07T10:22:37;3.13;;;2.83;;
20535;SDS011;10426;49.420;8.390;2023-05-07T10:25:11;2.97;;;2.72;;
20535;SDS011;10426;49.420;8.390;2023-05-07T10:27:40;2.85;;;2.40;;
20535;SDS011;10426;49.420;8.390;2023-05-07T10:30:10;2.87;;;2.60;;
20535;SDS011;10426;49.420;8.390;2023-05-07T10:32:40;3.50;;;2.60;;
20535;SDS011;10426;49.420;8.390;2023-05-07T10:35:10;4.38;;;2.95;;
20535;SDS011;10426;49.420;8.390;2023-05-07T10:37:40;2.70;;;2.50;;
20535;SDS011;10426;49.420;8.390;2023-05-07T10:40:08;2.20;;;2.10;;
20535;SDS011;10426;49.420;8.390;2023-05-07T10:42:35;2.40;;;2.30;;
20535;SDS011;10426;49.420;8.390;2023-05-07T10:45:13;3.53;;;2.45;;
20535;SDS011;10426;49.420;8.390;2023-05-07T10:48:05;2.90;;;2.33;;
20535;SDS011;10426;49.420;8.390;2023-05-07T10:50:32;3.80;;;2.30;;
20535;SDS011;10426;49.420;8.390;2023-05-07T10:53:23;2.30;;;2.20;;
20535;SDS011;10426;49.420;8.390;2023-05-07T10:58:39;2.20;;;2.00;;
20535;SDS011;10426;49.420;8.390;2023-05-07T11:01:07;2.42;;;2.10;;
20535;SDS011;10426;49.420;8.390;2023-05-07T11:06:24;2.45;;;2.30;;
20535;SDS011;10426;49.420;8.390;2023-05-07T11:08:54;2.00;;;1.90;;
20535;SDS011;10426;49.420;8.390;2023-05-07T11:11:33;3.33;;;1.60;;
20535;SDS011;10426;49.420;8.390;2023-05-07T11:14:10;2.90;;;1.90;;
20535;SDS011;10426;49.420;8.390;2023-05-07T11:16:39;2.13;;;1.63;;
20535;SDS011;10426;49.420;8.390;2023-05-07T11:19:06;3.07;;;1.70;;
20535;SDS011;10426;49.420;8.390;2023-05-07T11:21:35;2.50;;;1.70;;
20535;SDS011;10426;49.420;8.390;2023-05-07T11:24:05;1.95;;;1.73;;
20535;SDS011;10426;49.420;8.390;2023-05-07T11:26:46;3.20;;;1.90;;
20535;SDS011;10426;49.420;8.390;2023-05-07T11:29:18;5.93;;;1.98;;
20535;SDS011;10426;49.420;8.390;2023-05-07T11:31:52;2.27;;;1.60;;
20535;SDS011;10426;49.420;8.390;2023-05-07T11:34:21;2.35;;;1.80;;
20535;SDS011;10426;49.420;8.390;2023-05-07T11:36:48;1.83;;;1.50;;
20535;SDS011;10426;49.420;8.390;2023-05-07T11:39:25;1.83;;;1.73;;
20535;SDS011;10426;49.420;8.390;2023-05-07T11:41:52;2.00;;;1.65;;
20535;SDS011;10426;49.420;8.390;2023-05-07T11:44:18;2.10;;;1.70;;
20535;SDS011;10426;49.420;8.390;2023-05-07T11:46:45;1.65;;;1.55;;
20535;SDS011;10426;49.420;8.390;2023-05-07T11:49:17;1.83;;;1.65;;
20535;SDS011;10426;49.420;8.390;2023-05-07T11:51:43;1.60;;;1.50;;
20535;SDS011;10426;49.420;8.390;2023-05-07T11:54:15;2.47;;;1.75;;
20535;SDS011;10426;49.420;8.390;2023-05-07T11:56:43;2.50;;;1.40;;
20535;SDS011;10426;49.420;8.390;2023-05-07T11:59:16;2.80;;;1.80;;
20535;SDS011;10426;49.420;8.390;2023-05-07T12:01:48;3.15;;;1.42;;
20535;SDS011;10426;49.420;8.390;2023-05-07T12:04:20;4.00;;;1.60;;
20535;SDS011;10426;49.420;8.390;2023-05-07T12:06:47;1.25;;;1.25;;
20535;SDS011;10426;49.420;8.390;2023-05-07T12:09:17;1.60;;;1.20;;
20535;SDS011;10426;49.420;8.390;2023-05-07T12:11:45;1.40;;;1.30;;
20535;SDS011;10426;49.420;8.390;2023-05-07T12:14:12;1.48;;;1.38;;
20535;SDS011;10426;49.420;8.390;2023-05-07T12:16:39;1.63;;;1.38;;
20535;SDS011;10426;49.420;8.390;2023-05-07T12:19:07;1.48;;;1.38;;
20535;SDS011;10426;49.420;8.390;2023-05-07T12:21:39;2.40;;;1.30;;
20535;SDS011;10426;49.420;8.390;2023-05-07T12:24:08;1.40;;;1.30;;
20535;SDS011;10426;49.420;8.390;2023-05-07T12:26:37;1.50;;;1.40;;
20535;SDS011;10426;49.420;8.390;2023-05-07T12:29:04;1.30;;;1.20;;
20535;SDS011;10426;49.420;8.390;2023-05-07T12:31:39;1.30;;;1.20;;
20535;SDS011;10426;49.420;8.390;2023-05-07T12:34:06;2.30;;;1.17;;
20535;SDS011;10426;49.420;8.390;2023-05-07T12:36:36;1.33;;;1.27;;
20535;SDS011;10426;49.420;8.390;2023-05-07T12:39:05;1.90;;;1.17;;
20535;SDS011;10426;49.420;8.390;2023-05-07T12:41:35;1.20;;;1.20;;
20535;SDS011;10426;49.420;8.390;2023-05-07T12:44:04;1.98;;;1.40;;
20535;SDS011;10426;49.420;8.390;2023-05-07T12:46:30;1.30;;;1.25;;
20535;SDS011;10426;49.420;8.390;2023-05-07T12:48:57;1.20;;;1.20;;
20535;SDS011;10426;49.420;8.390;2023-05-07T12:51:24;2.03;;;1.48;;
20535;SDS011;10426;49.420;8.390;2023-05-07T12:53:55;1.20;;;1.10;;
20535;SDS011;10426;49.420;8.390;2023-05-07T12:56:24;1.80;;;1.30;;
20535;SDS011;10426;49.420;8.390;2023-05-07T12:58:50;1.70;;;1.37;;
20535;SDS011;10426;49.420;8.390;2023-05-07T13:01:17;1.52;;;1.30;;
20535;SDS011;10426;49.420;8.390;2023-05-07T13:03:48;1.20;;;1.20;;
20535;SDS011;10426;49.420;8.390;2023-05-07T13:06:19;1.10;;;1.10;;
20535;SDS011;10426;49.420;8.390;2023-05-07T13:08:46;1.10;;;1.10;;
20535;SDS011;10426;49.420;8.390;2023-05-07T13:11:20;3.15;;;1.40;;
20535;SDS011;10426;49.420;8.390;2023-05-07T13:13:49;1.53;;;1.30;;
20535;SDS011;10426;49.420;8.390;2023-05-07T13:16:17;1.63;;;1.50;;
20535;SDS011;10426;49.420;8.390;2023-05-07T13:18:46;1.40;;;1.30;;
20535;SDS011;10426;49.420;8.390;2023-05-07T13:21:17;1.40;;;1.30;;
20535;SDS011;10426;49.420;8.390;2023-05-07T13:23:44;1.40;;;1.30;;
20535;SDS011;10426;49.420;8.390;2023-05-07T13:26:12;1.40;;;1.30;;
20535;SDS011;10426;49.420;8.390;2023-05-07T13:28:39;2.13;;;1.30;;
20535;SDS011;10426;49.420;8.390;2023-05-07T13:31:15;1.13;;;1.10;;
20535;SDS011;10426;49.420;8.390;2023-05-07T13:33:42;1.60;;;1.50;;
20535;SDS011;10426;49.420;8.390;2023-05-07T13:36:09;1.20;;;1.20;;
20535;SDS011;10426;49.420;8.390;2023-05-07T13:38:35;1.50;;;1.40;;
20535;SDS011;10426;49.420;8.390;2023-05-07T13:41:02;1.50;;;1.42;;
20535;SDS011;10426;49.420;8.390;2023-05-07T13:43:29;1.40;;;1.30;;
20535;SDS011;10426;49.420;8.390;2023-05-07T13:45:57;1.40;;;1.30;;
20535;SDS011;10426;49.420;8.390;2023-05-07T13:48:43;3.13;;;1.48;;
20535;SDS011;10426;49.420;8.390;2023-05-07T13:51:10;1.67;;;1.58;;
20535;SDS011;10426;49.420;8.390;2023-05-07T13:53:40;2.58;;;1.52;;
20535;SDS011;10426;49.420;8.390;2023-05-07T13:56:07;6.30;;;2.80;;
20535;SDS011;10426;49.420;8.390;2023-05-07T13:58:34;8.15;;;3.20;;
20535;SDS011;10426;49.420;8.390;2023-05-07T14:01:04;6.38;;;2.63;;
20535;SDS011;10426;49.420;8.390;2023-05-07T14:03:30;7.13;;;3.20;;
20535;SDS011;10426;49.420;8.390;2023-05-07T14:06:00;3.50;;;2.20;;
20535;SDS011;10426;49.420;8.390;2023-05-07T14:08:27;2.90;;;2.35;;
20535;SDS011;10426;49.420;8.390;2023-05-07T14:10:53;3.63;;;2.30;;
20535;SDS011;10426;49.420;8.390;2023-05-07T14:13:20;3.45;;;2.60;;
20535;SDS011;10426;49.420;8.390;2023-05-07T14:15:47;2.80;;;2.50;;
20535;SDS011;10426;49.420;8.390;2023-05-07T14:18:14;4.60;;;2.70;;
20535;SDS011;10426;49.420;8.390;2023-05-07T14:20:41;4.00;;;2.80;;
20535;SDS011;10426;49.420;8.390;2023-05-07T14:23:09;2.80;;;2.60;;
20535;SDS011;10426;49.420;8.390;2023-05-07T14:25:36;4.20;;;3.40;;
20535;SDS011;10426;49.420;8.390;2023-05-07T14:28:03;4.60;;;3.50;;
20535;SDS011;10426;49.420;8.390;2023-05-07T14:30:29;3.70;;;3.40;;
20535;SDS011;10426;49.420;8.390;2023-05-07T14:32:56;4.43;;;3.72;;
20535;SDS011;10426;49.420;8.390;2023-05-07T14:35:23;9.23;;;4.28;;
20535;SDS011;10426;49.420;8.390;2023-05-07T14:37:50;6.82;;;3.88;;
20535;SDS011;10426;49.420;8.390;2023-05-07T14:40:20;6.30;;;4.60;;
20535;SDS011;10426;49.420;8.390;2023-05-07T14:42:49;4.10;;;3.80;;
20535;SDS011;10426;49.420;8.390;2023-05-07T14:45:16;5.15;;;3.97;;
20535;SDS011;10426;49.420;8.390;2023-05-07T14:47:42;4.35;;;3.80;;
20535;SDS011;10426;49.420;8.390;2023-05-07T14:50:09;5.60;;;3.50;;
20535;SDS011;10426;49.420;8.390;2023-05-07T14:52:36;6.13;;;3.30;;
20535;SDS011;10426;49.420;8.390;2023-05-07T14:55:02;6.75;;;3.13;;
20535;SDS011;10426;49.420;8.390;2023-05-07T14:57:30;4.33;;;2.50;;